createdAt,value
2017-07-17T00:02:03.228Z,50.0
2017-07-17T00:07:03.306Z,49.9
2017-07-17T00:12:03.087Z,49.9
2017-07-17T00:17:04.028Z,49.9
2017-07-17T00:22:03.073Z,50.0
2017-07-17T00:27:03.847Z,50.0
2017-07-17T00:32:03.566Z,49.8
2017-07-17T00:37:03.672Z,49.9
2017-07-17T00:42:03.258Z,49.9
2017-07-17T00:47:03.870Z,49.7
2017-07-17T00:52:03.545Z,49.6
2017-07-17T00:57:03.452Z,49.6
2017-07-17T01:02:03.144Z,49.6
2017-07-17T01:07:03.612Z,49.6
2017-07-17T01:12:03.708Z,49.8
2017-07-17T01:17:03.288Z,49.6
2017-07-17T01:22:03.484Z,49.5
2017-07-17T01:27:03.090Z,49.6
2017-07-17T01:32:04.625Z,49.5
2017-07-17T01:37:03.386Z,49.4
2017-07-17T01:42:03.073Z,49.3
2017-07-17T01:47:03.750Z,49.4
2017-07-17T01:52:03.490Z,49.2
2017-07-17T01:57:03.198Z,49.2
2017-07-17T02:02:03.064Z,49.3
2017-07-17T02:07:03.954Z,49.3
2017-07-17T02:12:03.699Z,49.3
2017-07-17T02:17:03.560Z,49.3
2017-07-17T02:22:03.395Z,49.3
2017-07-17T02:27:04.023Z,49.2
2017-07-17T02:32:03.607Z,49.4
2017-07-17T02:37:03.380Z,49.3
2017-07-17T02:42:03.527Z,49.4
2017-07-17T02:47:04.507Z,49.5
2017-07-17T02:52:03.212Z,49.6
2017-07-17T02:57:03.534Z,49.5
2017-07-17T03:02:14.890Z,49.4
2017-07-17T03:07:03.287Z,49.3
2017-07-17T03:12:03.920Z,49.3
2017-07-17T03:17:22.285Z,49.4
2017-07-17T03:22:03.749Z,49.3
2017-07-17T03:27:03.465Z,49.3
2017-07-17T03:32:21.903Z,49.4
2017-07-17T03:37:03.398Z,49.6
2017-07-17T03:42:03.873Z,49.6
2017-07-17T03:47:28.766Z,49.4
2017-07-17T03:52:03.671Z,49.3
2017-07-17T03:57:03.131Z,49.3
2017-07-17T04:02:23.829Z,49.2
2017-07-17T04:07:03.172Z,49.3
2017-07-17T04:12:03.680Z,49.1
2017-07-17T04:17:24.472Z,49.2
2017-07-17T04:22:03.437Z,49.2
2017-07-17T04:27:03.840Z,49.1
2017-07-17T04:32:21.412Z,49.1
2017-07-17T04:37:03.686Z,49.1
2017-07-17T04:42:03.101Z,49.0
2017-07-17T04:47:24.007Z,49.0
2017-07-17T04:52:03.523Z,49.0
2017-07-17T04:57:03.773Z,48.9
2017-07-17T05:02:27.480Z,49.0
2017-07-17T05:07:03.644Z,48.8
2017-07-17T05:12:03.131Z,48.9
2017-07-17T05:17:33.006Z,48.9
2017-07-17T05:22:03.038Z,48.8
2017-07-17T05:27:03.486Z,48.7
2017-07-17T05:32:26.760Z,48.8
2017-07-17T05:37:03.707Z,48.5
2017-07-17T05:42:03.017Z,48.6
2017-07-17T05:47:26.557Z,48.4
2017-07-17T05:52:03.061Z,48.3
2017-07-17T05:57:03.456Z,48.3
2017-07-17T06:02:25.145Z,48.2
2017-07-17T06:07:03.111Z,48.3
2017-07-17T06:12:03.662Z,48.4
2017-07-17T06:17:27.148Z,48.5
2017-07-17T06:22:03.947Z,48.4
2017-07-17T06:27:03.334Z,48.4
2017-07-17T06:32:24.168Z,48.5
2017-07-17T06:37:03.510Z,48.7
2017-07-17T06:42:03.801Z,48.8
2017-07-17T06:47:23.706Z,48.7
2017-07-17T06:52:03.281Z,48.9
2017-07-17T06:57:03.718Z,48.9
2017-07-17T07:02:33.837Z,48.9
2017-07-17T07:07:03.704Z,49.0
2017-07-17T07:12:03.321Z,49.3
2017-07-17T07:17:28.481Z,49.4
2017-07-17T07:22:03.909Z,49.5
2017-07-17T07:27:03.254Z,49.5
2017-07-17T07:32:34.902Z,49.6
2017-07-17T07:37:03.645Z,49.5
2017-07-17T07:42:03.047Z,49.4
2017-07-17T07:47:23.611Z,49.9
2017-07-17T07:52:03.675Z,50.0
2017-07-17T07:57:03.083Z,49.9
2017-07-17T08:02:24.103Z,49.8
2017-07-17T08:07:03.407Z,49.8
2017-07-17T08:12:03.796Z,50.3
2017-07-17T08:17:33.423Z,50.3
2017-07-17T08:22:03.770Z,50.8
2017-07-17T08:27:03.284Z,50.7
2017-07-17T08:32:22.777Z,50.9
2017-07-17T08:37:03.508Z,50.8
2017-07-17T08:42:03.875Z,50.7
2017-07-17T08:47:25.640Z,51.2
2017-07-17T08:52:03.493Z,51.3
2017-07-17T08:57:03.926Z,51.2
2017-07-17T09:02:27.792Z,51.4
2017-07-17T09:07:03.603Z,51.9
2017-07-17T09:12:03.218Z,51.4
2017-07-17T09:17:26.343Z,51.4
2017-07-17T09:22:03.218Z,51.2
2017-07-17T09:27:03.581Z,51.6
2017-07-17T09:32:28.121Z,51.3
2017-07-17T09:37:03.664Z,51.1
2017-07-17T09:42:03.926Z,51.3
2017-07-17T09:47:28.505Z,52.0
2017-07-17T09:52:03.096Z,52.0
2017-07-17T09:57:03.643Z,52.0
2017-07-17T10:02:24.776Z,51.8
2017-07-17T10:07:03.273Z,51.4
2017-07-17T10:12:03.868Z,51.3
2017-07-17T10:17:28.389Z,50.8
2017-07-17T10:22:03.170Z,51.3
2017-07-17T10:27:03.676Z,50.2
2017-07-17T10:32:27.424Z,50.2
2017-07-17T10:37:03.460Z,51.7
2017-07-17T10:42:03.766Z,52.2
2017-07-17T10:47:29.072Z,50.6
2017-07-17T10:52:03.681Z,50.6
2017-07-17T10:57:03.125Z,51.5
2017-07-17T11:02:28.045Z,51.5
2017-07-17T11:07:03.823Z,51.3
2017-07-17T11:12:03.232Z,51.2
2017-07-17T11:17:25.901Z,50.6
2017-07-17T11:22:03.298Z,51.0
2017-07-17T11:27:03.789Z,51.0
2017-07-17T11:32:24.685Z,51.3
2017-07-17T11:37:03.562Z,51.3
2017-07-17T11:42:03.949Z,51.4
2017-07-17T11:57:03.662Z,52.3
2017-07-17T12:02:23.456Z,52.7
2017-07-17T12:07:03.681Z,52.3
2017-07-17T12:12:03.383Z,52.3
2017-07-17T12:17:29.063Z,52.5
2017-07-17T12:22:03.351Z,51.0
2017-07-17T12:27:03.809Z,51.0
2017-07-17T12:32:23.224Z,51.5
2017-07-17T12:37:03.363Z,51.4
2017-07-17T12:42:03.743Z,51.0
2017-07-17T12:47:28.029Z,51.6
2017-07-17T12:52:03.450Z,49.8
2017-07-17T12:57:03.897Z,51.7
2017-07-17T13:02:23.625Z,51.3
2017-07-17T13:07:03.745Z,50.8
2017-07-17T13:12:03.388Z,49.5
2017-07-17T13:17:27.229Z,50.1
2017-07-17T13:22:03.900Z,50.1
2017-07-17T13:27:03.607Z,51.0
2017-07-17T13:32:23.230Z,51.0
2017-07-17T13:37:03.588Z,51.0
2017-07-17T13:42:03.864Z,50.7
2017-07-17T13:47:25.362Z,50.1
2017-07-17T13:52:03.796Z,49.2
2017-07-17T13:57:03.191Z,48.6
2017-07-17T14:02:28.000Z,49.8
2017-07-17T14:07:03.359Z,50.3
2017-07-17T14:12:03.789Z,50.3
2017-07-17T14:17:23.858Z,50.0
2017-07-17T14:22:03.799Z,49.7
2017-07-17T14:27:03.107Z,49.7
2017-07-17T14:32:27.954Z,48.2
2017-07-17T14:37:03.895Z,47.8
2017-07-17T14:42:03.258Z,47.8
2017-07-17T14:47:23.936Z,45.1
2017-07-17T14:52:03.754Z,45.1
2017-07-17T14:57:04.450Z,40.9
2017-07-17T15:02:07.602Z,41.0
2017-07-17T15:07:03.124Z,38.8
2017-07-17T15:12:03.701Z,38.8
2017-07-17T15:17:22.684Z,40.2
2017-07-17T15:22:03.653Z,40.2
2017-07-17T15:27:03.928Z,42.6
2017-07-17T15:32:23.835Z,47.2
2017-07-17T15:37:03.720Z,47.2
2017-07-17T15:42:03.113Z,47.9
2017-07-17T15:47:24.283Z,47.1
2017-07-17T15:52:03.474Z,44.8
2017-07-17T15:57:03.739Z,44.8
2017-07-17T16:02:22.880Z,45.3
2017-07-17T16:07:03.668Z,45.3
2017-07-17T16:12:03.215Z,42.9
2017-07-17T16:17:24.653Z,44.4
2017-07-17T16:22:03.790Z,46.7
2017-07-17T16:27:03.134Z,46.7
2017-07-17T16:32:21.749Z,44.9
2017-07-17T16:37:03.085Z,46.4
2017-07-17T16:42:03.410Z,48.6
2017-07-17T16:47:26.929Z,48.9
2017-07-17T16:52:03.643Z,48.7
2017-07-17T16:57:03.925Z,48.7
2017-07-17T17:02:23.688Z,48.6
2017-07-17T17:07:03.192Z,49.2
2017-07-17T17:12:03.750Z,49.2
2017-07-17T17:17:22.626Z,48.9
2017-07-17T17:22:03.384Z,49.1
2017-07-17T17:27:03.656Z,43.4
2017-07-17T17:32:16.755Z,42.9
2017-07-17T17:37:03.497Z,38.4
2017-07-17T17:42:03.867Z,36.9
2017-07-17T17:47:14.952Z,37.4
2017-07-17T17:52:03.242Z,38.1
2017-07-17T17:57:03.481Z,38.1
2017-07-17T18:02:15.278Z,39.2
2017-07-17T18:07:03.638Z,41.6
2017-07-17T18:12:03.975Z,45.2
2017-07-17T18:17:23.970Z,48.7
2017-07-17T18:22:03.122Z,50.6
2017-07-17T18:27:03.472Z,50.6
2017-07-17T18:32:24.128Z,51.7
2017-07-17T18:37:03.474Z,52.1
2017-07-17T18:42:03.792Z,52.4
2017-07-17T18:47:23.731Z,52.4
2017-07-17T18:52:03.343Z,52.3
2017-07-17T18:57:03.705Z,51.8
2017-07-17T19:02:23.640Z,52.0
2017-07-17T19:07:03.347Z,51.8
2017-07-17T19:12:03.727Z,52.1
2017-07-17T19:17:23.990Z,51.9
2017-07-17T19:22:03.809Z,51.6
2017-07-17T19:27:03.362Z,51.6
2017-07-17T19:32:24.517Z,51.7
2017-07-17T19:37:03.543Z,51.9
2017-07-17T19:42:03.798Z,51.5
2017-07-17T19:47:28.797Z,51.5
2017-07-17T19:52:03.526Z,51.2
2017-07-17T19:57:03.846Z,51.3
2017-07-17T20:02:08.858Z,51.3
2017-07-17T20:07:03.625Z,51.1
2017-07-17T20:12:03.248Z,51.1
2017-07-17T20:17:05.905Z,51.0
2017-07-17T20:22:03.898Z,50.9
2017-07-17T20:27:03.324Z,50.9
2017-07-17T20:32:03.800Z,50.8
2017-07-17T20:37:03.872Z,50.7
2017-07-17T20:42:03.225Z,50.6
2017-07-17T20:47:03.500Z,50.7
2017-07-17T20:52:03.776Z,50.7
2017-07-17T20:57:03.160Z,50.7
2017-07-17T21:02:03.474Z,50.7
2017-07-17T21:07:03.832Z,50.8
2017-07-17T21:12:03.604Z,50.5
2017-07-17T21:17:04.002Z,50.5
2017-07-17T21:22:03.350Z,50.4
2017-07-17T21:27:03.576Z,50.5
2017-07-17T21:32:04.203Z,50.4
2017-07-17T21:37:03.203Z,50.3
2017-07-17T21:42:03.502Z,50.4
2017-07-17T21:47:03.847Z,50.4
2017-07-17T21:52:03.363Z,50.3
2017-07-17T21:57:03.522Z,50.3
2017-07-17T22:02:04.018Z,50.5
2017-07-17T22:07:03.391Z,50.5
2017-07-17T22:12:03.657Z,50.4
2017-07-17T22:22:04.061Z,50.2
2017-07-17T22:27:03.261Z,50.5
2017-07-17T22:32:03.763Z,50.6
2017-07-17T22:37:03.208Z,50.6
2017-07-17T22:42:03.733Z,50.7
2017-07-17T22:47:03.248Z,50.7
2017-07-17T22:52:03.744Z,50.8
2017-07-17T22:57:03.348Z,50.7
2017-07-17T23:02:03.104Z,50.9
2017-07-17T23:07:03.600Z,50.7
2017-07-17T23:12:03.447Z,50.8
2017-07-17T23:17:03.249Z,50.7
2017-07-17T23:22:03.673Z,50.7
2017-07-17T23:27:03.356Z,50.8
2017-07-17T23:32:03.976Z,50.7
2017-07-17T23:37:03.692Z,50.8
2017-07-17T23:42:03.587Z,50.8
2017-07-17T23:47:03.517Z,50.8
2017-07-17T23:52:03.049Z,50.6
2017-07-17T23:57:03.867Z,50.6
